sensor_id;sensor_type;location;lat;lon;timestamp;pressure;altitude;pressure_sealevel;temperature;humidity
19112;BME280;9688;51.906;8.376;2024-03-07T00:00:20;101745.09;;;6.61;100.00
19112;BME280;9688;51.906;8.376;2024-03-07T00:03:07;101747.75;;;6.57;100.00
19112;BME280;9688;51.906;8.376;2024-03-07T00:10:12;101741.66;;;6.47;100.00
19112;BME280;9688;51.906;8.376;2024-03-07T00:12:59;101746.91;;;6.45;100.00
19112;BME280;9688;51.906;8.376;2024-03-07T00:15:44;101743.44;;;6.43;100.00
19112;BME280;9688;51.906;8.376;2024-03-07T00:18:31;101747.81;;;6.41;100.00
19112;BME280;9688;51.906;8.376;2024-03-07T00:21:16;101749.56;;;6.39;100.00
19112;BME280;9688;51.906;8.376;2024-03-07T00:24:02;101746.06;;;6.37;100.00
19112;BME280;9688;51.906;8.376;2024-03-07T00:26:49;101749.56;;;6.36;100.00
19112;BME280;9688;51.906;8.376;2024-03-07T00:29:35;101755.72;;;6.32;100.00
19112;BME280;9688;51.906;8.376;2024-03-07T00:32:21;101753.09;;;6.28;100.00
19112;BME280;9688;51.906;8.376;2024-03-07T00:35:09;101756.59;;;6.23;100.00
19112;BME280;9688;51.906;8.376;2024-03-07T00:37:54;101753.97;;;6.17;100.00
19112;BME280;9688;51.906;8.376;2024-03-07T00:40:40;101751.38;;;6.11;100.00
19112;BME280;9688;51.906;8.376;2024-03-07T00:43:25;101748.78;;;6.05;100.00
19112;BME280;9688;51.906;8.376;2024-03-07T00:46:11;101757.53;;;6.02;100.00
19112;BME280;9688;51.906;8.376;2024-03-07T00:48:56;101749.63;;;6.01;100.00
19112;BME280;9688;51.906;8.376;2024-03-07T00:51:43;101746.13;;;6.00;100.00
19112;BME280;9688;51.906;8.376;2024-03-07T00:54:28;101747.91;;;6.00;100.00
19112;BME280;9688;51.906;8.376;2024-03-07T00:57:14;101751.41;;;5.97;100.00
19112;BME280;9688;51.906;8.376;2024-03-07T00:59:59;101750.53;;;5.94;100.00
19112;BME280;9688;51.906;8.376;2024-03-07T01:02:44;101744.34;;;5.90;100.00
19112;BME280;9688;51.906;8.376;2024-03-07T01:05:30;101744.38;;;5.87;100.00
19112;BME280;9688;51.906;8.376;2024-03-07T01:08:18;101746.13;;;5.84;100.00
19112;BME280;9688;51.906;8.376;2024-03-07T01:11:03;101748.75;;;5.80;100.00
19112;BME280;9688;51.906;8.376;2024-03-07T01:13:53;101746.13;;;5.76;100.00
19112;BME280;9688;51.906;8.376;2024-03-07T01:16:39;101749.63;;;5.73;100.00
19112;BME280;9688;51.906;8.376;2024-03-07T01:19:25;101749.63;;;5.70;100.00
19112;BME280;9688;51.906;8.376;2024-03-07T01:22:10;101752.25;;;5.67;100.00
19112;BME280;9688;51.906;8.376;2024-03-07T01:24:57;101750.50;;;5.66;100.00
19112;BME280;9688;51.906;8.376;2024-03-07T01:27:43;101743.53;;;5.61;100.00
19112;BME280;9688;51.906;8.376;2024-03-07T01:30:28;101743.53;;;5.57;100.00
19112;BME280;9688;51.906;8.376;2024-03-07T01:33:14;101737.38;;;5.54;100.00
19112;BME280;9688;51.906;8.376;2024-03-07T01:35:59;101734.75;;;5.51;100.00
19112;BME280;9688;51.906;8.376;2024-03-07T01:38:44;101731.28;;;5.44;100.00
19112;BME280;9688;51.906;8.376;2024-03-07T01:41:31;101729.53;;;5.39;100.00
19112;BME280;9688;51.906;8.376;2024-03-07T01:44:18;101727.78;;;5.36;100.00
19112;BME280;9688;51.906;8.376;2024-03-07T01:47:03;101728.63;;;5.33;100.00
19112;BME280;9688;51.906;8.376;2024-03-07T01:49:49;101719.03;;;5.31;100.00
19112;BME280;9688;51.906;8.376;2024-03-07T01:52:34;101721.66;;;5.29;100.00
19112;BME280;9688;51.906;8.376;2024-03-07T01:55:21;101717.28;;;5.25;100.00
19112;BME280;9688;51.906;8.376;2024-03-07T01:58:08;101712.03;;;5.24;100.00
19112;BME280;9688;51.906;8.376;2024-03-07T02:00:54;101718.13;;;5.23;100.00
19112;BME280;9688;51.906;8.376;2024-03-07T02:03:40;101719.88;;;5.21;100.00
19112;BME280;9688;51.906;8.376;2024-03-07T02:06:26;101719.00;;;5.17;100.00
19112;BME280;9688;51.906;8.376;2024-03-07T02:09:13;101713.78;;;5.16;100.00
19112;BME280;9688;51.906;8.376;2024-03-07T02:11:59;101712.88;;;5.12;100.00
19112;BME280;9688;51.906;8.376;2024-03-07T02:14:46;101714.63;;;5.11;100.00
19112;BME280;9688;51.906;8.376;2024-03-07T02:17:31;101706.75;;;5.08;100.00
19112;BME280;9688;51.906;8.376;2024-03-07T02:20:17;101705.03;;;5.07;100.00
19112;BME280;9688;51.906;8.376;2024-03-07T02:23:04;101692.78;;;5.05;100.00
19112;BME280;9688;51.906;8.376;2024-03-07T02:25:50;101695.41;;;5.03;100.00
19112;BME280;9688;51.906;8.376;2024-03-07T02:29:00;101703.28;;;5.02;100.00
19112;BME280;9688;51.906;8.376;2024-03-07T02:31:46;101698.91;;;4.99;100.00
19112;BME280;9688;51.906;8.376;2024-03-07T02:34:32;101692.78;;;4.97;100.00
19112;BME280;9688;51.906;8.376;2024-03-07T02:37:18;101691.91;;;4.97;100.00
19112;BME280;9688;51.906;8.376;2024-03-07T02:40:06;101688.41;;;4.95;100.00
19112;BME280;9688;51.906;8.376;2024-03-07T02:42:52;101687.53;;;4.94;100.00
19112;BME280;9688;51.906;8.376;2024-03-07T02:45:37;101694.53;;;4.94;100.00
19112;BME280;9688;51.906;8.376;2024-03-07T02:48:23;101689.25;;;4.92;100.00
19112;BME280;9688;51.906;8.376;2024-03-07T02:51:08;101693.63;;;4.88;100.00
19112;BME280;9688;51.906;8.376;2024-03-07T02:53:53;101684.88;;;4.86;100.00
19112;BME280;9688;51.906;8.376;2024-03-07T02:56:43;101684.88;;;4.85;100.00
19112;BME280;9688;51.906;8.376;2024-03-07T02:59:29;101688.38;;;4.82;100.00
19112;BME280;9688;51.906;8.376;2024-03-07T03:02:14;101685.75;;;4.81;100.00
19112;BME280;9688;51.906;8.376;2024-03-07T03:04:59;101691.88;;;4.80;100.00
19112;BME280;9688;51.906;8.376;2024-03-07T03:07:45;101685.75;;;4.78;100.00
19112;BME280;9688;51.906;8.376;2024-03-07T03:10:37;101686.59;;;4.75;100.00
19112;BME280;9688;51.906;8.376;2024-03-07T03:13:24;101677.00;;;4.74;100.00
19112;BME280;9688;51.906;8.376;2024-03-07T03:16:11;101683.13;;;4.75;100.00
19112;BME280;9688;51.906;8.376;2024-03-07T03:18:56;101684.84;;;4.73;100.00
19112;BME280;9688;51.906;8.376;2024-03-07T03:21:41;101682.22;;;4.69;100.00
19112;BME280;9688;51.906;8.376;2024-03-07T03:24:27;101685.72;;;4.67;100.00
19112;BME280;9688;51.906;8.376;2024-03-07T03:27:13;101683.06;;;4.65;100.00
19112;BME280;9688;51.906;8.376;2024-03-07T03:29:59;101684.81;;;4.62;100.00
19112;BME280;9688;51.906;8.376;2024-03-07T03:32:46;101680.44;;;4.59;100.00
19112;BME280;9688;51.906;8.376;2024-03-07T03:35:32;101678.69;;;4.57;100.00
19112;BME280;9688;51.906;8.376;2024-03-07T03:38:17;101683.03;;;4.56;100.00
19112;BME280;9688;51.906;8.376;2024-03-07T03:41:03;101674.31;;;4.53;100.00
19112;BME280;9688;51.906;8.376;2024-03-07T03:43:49;101674.28;;;4.51;100.00
19112;BME280;9688;51.906;8.376;2024-03-07T03:46:35;101674.31;;;4.50;100.00
19112;BME280;9688;51.906;8.376;2024-03-07T03:49:20;101676.03;;;4.51;100.00
19112;BME280;9688;51.906;8.376;2024-03-07T03:52:06;101676.06;;;4.49;100.00
19112;BME280;9688;51.906;8.376;2024-03-07T03:54:51;101677.78;;;4.48;100.00
19112;BME280;9688;51.906;8.376;2024-03-07T03:57:38;101672.53;;;4.48;100.00
19112;BME280;9688;51.906;8.376;2024-03-07T04:00:24;101669.06;;;4.48;100.00
19112;BME280;9688;51.906;8.376;2024-03-07T04:03:11;101672.56;;;4.47;100.00
19112;BME280;9688;51.906;8.376;2024-03-07T04:05:56;101666.44;;;4.45;100.00
19112;BME280;9688;51.906;8.376;2024-03-07T04:08:42;101666.44;;;4.43;100.00
19112;BME280;9688;51.906;8.376;2024-03-07T04:11:28;101662.06;;;4.41;100.00
19112;BME280;9688;51.906;8.376;2024-03-07T04:14:14;101664.69;;;4.41;100.00
19112;BME280;9688;51.906;8.376;2024-03-07T04:16:59;101662.03;;;4.39;100.00
19112;BME280;9688;51.906;8.376;2024-03-07T04:19:47;101672.50;;;4.39;100.00
19112;BME280;9688;51.906;8.376;2024-03-07T04:22:33;101669.03;;;4.39;100.00
19112;BME280;9688;51.906;8.376;2024-03-07T04:25:19;101669.00;;;4.37;100.00
19112;BME280;9688;51.906;8.376;2024-03-07T04:28:05;101668.16;;;4.35;100.00
19112;BME280;9688;51.906;8.376;2024-03-07T04:31:17;101661.16;;;4.33;100.00
19112;BME280;9688;51.906;8.376;2024-03-07T04:34:03;101659.41;;;4.35;100.00
19112;BME280;9688;51.906;8.376;2024-03-07T04:36:50;101657.66;;;4.34;100.00
19112;BME280;9688;51.906;8.376;2024-03-07T04:39:36;101664.66;;;4.33;100.00
19112;BME280;9688;51.906;8.376;2024-03-07T04:42:21;101659.41;;;4.33;100.00
19112;BME280;9688;51.906;8.376;2024-03-07T04:45:08;101651.53;;;4.32;100.00
19112;BME280;9688;51.906;8.376;2024-03-07T04:47:58;101655.91;;;4.30;100.00
19112;BME280;9688;51.906;8.376;2024-03-07T04:50:43;101658.50;;;4.28;100.00
19112;BME280;9688;51.906;8.376;2024-03-07T04:53:31;101655.88;;;4.27;100.00
19112;BME280;9688;51.906;8.376;2024-03-07T04:56:17;101663.75;;;4.25;100.00
19112;BME280;9688;51.906;8.376;2024-03-07T04:59:03;101653.25;;;4.23;100.00
19112;BME280;9688;51.906;8.376;2024-03-07T05:01:52;101659.34;;;4.22;100.00
19112;BME280;9688;51.906;8.376;2024-03-07T05:04:37;101666.31;;;4.20;100.00
19112;BME280;9688;51.906;8.376;2024-03-07T05:07:23;101663.72;;;4.20;100.00
19112;BME280;9688;51.906;8.376;2024-03-07T05:10:10;101665.44;;;4.20;100.00
19112;BME280;9688;51.906;8.376;2024-03-07T05:12:55;101673.31;;;4.20;100.00
19112;BME280;9688;51.906;8.376;2024-03-07T05:15:42;101679.41;;;4.19;100.00
19112;BME280;9688;51.906;8.376;2024-03-07T05:18:28;101672.41;;;4.18;100.00
19112;BME280;9688;51.906;8.376;2024-03-07T05:21:14;101672.41;;;4.18;100.00
19112;BME280;9688;51.906;8.376;2024-03-07T05:24:17;101678.53;;;4.17;100.00
19112;BME280;9688;51.906;8.376;2024-03-07T05:27:05;101668.06;;;4.17;100.00
19112;BME280;9688;51.906;8.376;2024-03-07T05:29:51;101671.56;;;4.20;100.00
19112;BME280;9688;51.906;8.376;2024-03-07T05:32:37;101673.34;;;4.28;100.00
19112;BME280;9688;51.906;8.376;2024-03-07T05:35:23;101673.38;;;4.35;100.00
19112;BME280;9688;51.906;8.376;2024-03-07T05:38:08;101674.28;;;4.43;100.00
19112;BME280;9688;51.906;8.376;2024-03-07T05:40:54;101669.06;;;4.53;100.00
19112;BME280;9688;51.906;8.376;2024-03-07T05:43:41;101661.25;;;4.63;100.00
19112;BME280;9688;51.906;8.376;2024-03-07T05:46:27;101663.91;;;4.76;100.00
19112;BME280;9688;51.906;8.376;2024-03-07T05:49:13;101655.19;;;4.84;100.00
19112;BME280;9688;51.906;8.376;2024-03-07T05:51:59;101653.44;;;4.92;100.00
19112;BME280;9688;51.906;8.376;2024-03-07T05:54:44;101664.84;;;4.99;100.00
19112;BME280;9688;51.906;8.376;2024-03-07T05:57:30;101670.97;;;5.07;100.00
19112;BME280;9688;51.906;8.376;2024-03-07T06:00:17;101677.94;;;5.16;100.00
19112;BME280;9688;51.906;8.376;2024-03-07T06:03:11;101674.47;;;5.29;100.00
19112;BME280;9688;51.906;8.376;2024-03-07T06:05:58;101678.81;;;5.36;100.00
19112;BME280;9688;51.906;8.376;2024-03-07T06:08:43;101666.59;;;5.43;100.00
19112;BME280;9688;51.906;8.376;2024-03-07T06:11:29;101660.47;;;5.50;100.00
19112;BME280;9688;51.906;8.376;2024-03-07T06:14:14;101665.69;;;5.53;100.00
19112;BME280;9688;51.906;8.376;2024-03-07T06:17:03;101673.56;;;5.56;100.00
19112;BME280;9688;51.906;8.376;2024-03-07T06:19:49;101665.69;;;5.59;100.00
19112;BME280;9688;51.906;8.376;2024-03-07T06:22:34;101670.94;;;5.64;100.00
19112;BME280;9688;51.906;8.376;2024-03-07T06:25:20;101660.44;;;5.70;100.00
19112;BME280;9688;51.906;8.376;2024-03-07T06:28:18;101666.53;;;5.78;100.00
19112;BME280;9688;51.906;8.376;2024-03-07T06:31:04;101667.44;;;5.82;100.00
19112;BME280;9688;51.906;8.376;2024-03-07T06:33:53;101660.41;;;5.89;100.00
19112;BME280;9688;51.906;8.376;2024-03-07T06:36:38;101663.91;;;5.97;100.00
19112;BME280;9688;51.906;8.376;2024-03-07T06:39:25;101668.28;;;6.02;100.00
19112;BME280;9688;51.906;8.376;2024-03-07T06:42:10;101670.03;;;6.10;100.00
19112;BME280;9688;51.906;8.376;2024-03-07T06:44:57;101670.88;;;6.12;100.00
19112;BME280;9688;51.906;8.376;2024-03-07T06:47:43;101673.47;;;6.15;100.00
19112;BME280;9688;51.906;8.376;2024-03-07T06:50:30;101671.72;;;6.20;100.00
19112;BME280;9688;51.906;8.376;2024-03-07T06:53:15;101675.22;;;6.20;100.00
19112;BME280;9688;51.906;8.376;2024-03-07T06:59:34;101671.72;;;6.24;100.00
19112;BME280;9688;51.906;8.376;2024-03-07T07:02:20;101677.81;;;6.28;100.00
19112;BME280;9688;51.906;8.376;2024-03-07T07:05:07;101675.19;;;6.30;100.00
19112;BME280;9688;51.906;8.376;2024-03-07T07:07:56;101675.16;;;6.34;100.00
19112;BME280;9688;51.906;8.376;2024-03-07T07:10:42;101671.66;;;6.34;100.00
19112;BME280;9688;51.906;8.376;2024-03-07T07:13:27;101675.16;;;6.34;100.00
19112;BME280;9688;51.906;8.376;2024-03-07T07:16:13;101672.53;;;6.36;100.00
19112;BME280;9688;51.906;8.376;2024-03-07T07:18:59;101678.66;;;6.38;100.00
19112;BME280;9688;51.906;8.376;2024-03-07T07:21:44;101683.94;;;6.35;100.00
19112;BME280;9688;51.906;8.376;2024-03-07T07:24:33;101683.03;;;6.39;100.00
19112;BME280;9688;51.906;8.376;2024-03-07T07:27:18;101682.19;;;6.35;100.00
19112;BME280;9688;51.906;8.376;2024-03-07T07:30:05;101685.66;;;6.37;100.00
19112;BME280;9688;51.906;8.376;2024-03-07T07:32:51;101685.63;;;6.42;100.00
19112;BME280;9688;51.906;8.376;2024-03-07T07:35:38;101690.03;;;6.46;100.00
19112;BME280;9688;51.906;8.376;2024-03-07T07:38:23;101685.59;;;6.56;100.00
19112;BME280;9688;51.906;8.376;2024-03-07T07:41:10;101689.03;;;6.64;100.00
19112;BME280;9688;51.906;8.376;2024-03-07T07:43:55;101683.75;;;6.72;100.00
19112;BME280;9688;51.906;8.376;2024-03-07T07:46:41;101680.25;;;6.71;100.00
19112;BME280;9688;51.906;8.376;2024-03-07T07:49:27;101684.63;;;6.70;100.00
19112;BME280;9688;51.906;8.376;2024-03-07T07:52:13;101680.25;;;6.69;100.00
19112;BME280;9688;51.906;8.376;2024-03-07T07:55:00;101683.75;;;6.72;100.00
19112;BME280;9688;51.906;8.376;2024-03-07T07:57:48;101669.72;;;6.74;100.00
19112;BME280;9688;51.906;8.376;2024-03-07T08:00:34;101676.72;;;6.75;100.00
19112;BME280;9688;51.906;8.376;2024-03-07T08:03:20;101660.09;;;6.76;100.00
19112;BME280;9688;51.906;8.376;2024-03-07T08:06:06;101667.13;;;6.69;100.00
19112;BME280;9688;51.906;8.376;2024-03-07T08:08:51;101658.44;;;6.60;100.00
19112;BME280;9688;51.906;8.376;2024-03-07T08:11:37;101661.06;;;6.54;100.00
19112;BME280;9688;51.906;8.376;2024-03-07T08:14:27;101654.09;;;6.50;100.00
19112;BME280;9688;51.906;8.376;2024-03-07T08:17:13;101652.34;;;6.45;100.00
19112;BME280;9688;51.906;8.376;2024-03-07T08:19:59;101653.19;;;6.51;100.00
19112;BME280;9688;51.906;8.376;2024-03-07T08:22:44;101647.88;;;6.64;100.00
19112;BME280;9688;51.906;8.376;2024-03-07T08:25:30;101645.22;;;6.70;100.00
19112;BME280;9688;51.906;8.376;2024-03-07T08:28:15;101640.84;;;6.69;100.00
19112;BME280;9688;51.906;8.376;2024-03-07T08:31:02;101639.13;;;6.65;100.00
19112;BME280;9688;51.906;8.376;2024-03-07T08:33:48;101634.75;;;6.61;100.00
19112;BME280;9688;51.906;8.376;2024-03-07T08:36:33;101642.59;;;6.69;100.00
19112;BME280;9688;51.906;8.376;2024-03-07T08:39:20;101646.13;;;6.66;100.00
19112;BME280;9688;51.906;8.376;2024-03-07T08:42:06;101642.63;;;6.64;100.00
19112;BME280;9688;51.906;8.376;2024-03-07T08:44:52;101644.34;;;6.76;100.00
19112;BME280;9688;51.906;8.376;2024-03-07T08:47:38;101642.47;;;6.90;100.00
19112;BME280;9688;51.906;8.376;2024-03-07T08:50:24;101638.00;;;7.02;100.00
19112;BME280;9688;51.906;8.376;2024-03-07T08:53:10;101643.16;;;7.14;100.00
19112;BME280;9688;51.906;8.376;2024-03-07T08:55:55;101639.53;;;7.30;100.00
19112;BME280;9688;51.906;8.376;2024-03-07T08:58:42;101635.00;;;7.46;100.00
19112;BME280;9688;51.906;8.376;2024-03-07T09:01:27;101632.22;;;7.62;100.00
19112;BME280;9688;51.906;8.376;2024-03-07T09:04:14;101628.66;;;7.67;100.00
19112;BME280;9688;51.906;8.376;2024-03-07T09:07:02;101629.56;;;7.68;100.00
19112;BME280;9688;51.906;8.376;2024-03-07T09:09:47;101632.94;;;7.77;100.00
19112;BME280;9688;51.906;8.376;2024-03-07T09:12:33;101635.47;;;7.87;100.00
19112;BME280;9688;51.906;8.376;2024-03-07T09:15:18;101626.66;;;7.91;100.00
19112;BME280;9688;51.906;8.376;2024-03-07T09:18:05;101630.94;;;8.01;100.00
19112;BME280;9688;51.906;8.376;2024-03-07T09:20:54;101629.09;;;8.06;100.00
19112;BME280;9688;51.906;8.376;2024-03-07T09:23:39;101630.78;;;8.12;100.00
19112;BME280;9688;51.906;8.376;2024-03-07T09:26:25;101632.47;;;8.20;100.00
19112;BME280;9688;51.906;8.376;2024-03-07T09:29:10;101630.63;;;8.29;100.00
19112;BME280;9688;51.906;8.376;2024-03-07T09:31:56;101622.53;;;8.42;100.00
19112;BME280;9688;51.906;8.376;2024-03-07T09:34:42;101624.91;;;8.62;100.00
19112;BME280;9688;51.906;8.376;2024-03-07T09:37:28;101625.53;;;8.80;100.00
19112;BME280;9688;51.906;8.376;2024-03-07T09:40:14;101628.94;;;8.86;100.00
19112;BME280;9688;51.906;8.376;2024-03-07T09:43:00;101632.47;;;8.87;100.00
19112;BME280;9688;51.906;8.376;2024-03-07T09:45:46;101628.88;;;8.92;100.00
19112;BME280;9688;51.906;8.376;2024-03-07T09:48:31;101628.72;;;9.00;100.00
19112;BME280;9688;51.906;8.376;2024-03-07T09:51:19;101625.22;;;9.01;100.00
19112;BME280;9688;51.906;8.376;2024-03-07T09:54:06;101622.47;;;9.07;100.00
19112;BME280;9688;51.906;8.376;2024-03-07T09:56:53;101628.34;;;9.25;99.89
19112;BME280;9688;51.906;8.376;2024-03-07T09:59:41;101623.75;;;9.36;99.73
19112;BME280;9688;51.906;8.376;2024-03-07T10:02:27;101619.88;;;9.55;99.10
19112;BME280;9688;51.906;8.376;2024-03-07T10:05:15;101622.97;;;9.79;98.75
19112;BME280;9688;51.906;8.376;2024-03-07T10:08:02;101634.09;;;9.96;97.89
19112;BME280;9688;51.906;8.376;2024-03-07T10:10:50;101620.53;;;10.13;97.44
19112;BME280;9688;51.906;8.376;2024-03-07T10:13:41;101628.25;;;10.22;96.66
19112;BME280;9688;51.906;8.376;2024-03-07T10:16:33;101632.16;;;10.04;97.30
19112;BME280;9688;51.906;8.376;2024-03-07T10:19:19;101621.59;;;10.06;97.24
19112;BME280;9688;51.906;8.376;2024-03-07T10:22:05;101640.06;;;10.06;96.36
19112;BME280;9688;51.906;8.376;2024-03-07T10:24:51;101634.09;;;9.96;97.04
19112;BME280;9688;51.906;8.376;2024-03-07T10:27:38;101625.31;;;9.94;97.28
19112;BME280;9688;51.906;8.376;2024-03-07T10:30:24;101633.16;;;9.97;97.31
19112;BME280;9688;51.906;8.376;2024-03-07T10:33:09;101632.50;;;9.86;97.13
19112;BME280;9688;51.906;8.376;2024-03-07T10:35:56;101628.22;;;9.80;97.14
19112;BME280;9688;51.906;8.376;2024-03-07T10:38:42;101632.75;;;9.74;97.59
19112;BME280;9688;51.906;8.376;2024-03-07T10:41:29;101628.47;;;9.67;98.21
19112;BME280;9688;51.906;8.376;2024-03-07T10:44:23;101632.09;;;9.61;97.20
19112;BME280;9688;51.906;8.376;2024-03-07T10:47:11;101631.28;;;9.57;98.10
19112;BME280;9688;51.906;8.376;2024-03-07T10:50:07;101631.53;;;9.44;98.84
19112;BME280;9688;51.906;8.376;2024-03-07T10:52:59;101631.75;;;9.31;99.18
19112;BME280;9688;51.906;8.376;2024-03-07T10:56:02;101627.22;;;9.40;97.84
19112;BME280;9688;51.906;8.376;2024-03-07T10:58:58;101621.03;;;9.41;98.14
19112;BME280;9688;51.906;8.376;2024-03-07T11:01:49;101613.97;;;9.41;97.85
19112;BME280;9688;51.906;8.376;2024-03-07T11:04:39;101618.28;;;9.47;97.95
19112;BME280;9688;51.906;8.376;2024-03-07T11:07:25;101620.97;;;9.45;98.67
19112;BME280;9688;51.906;8.376;2024-03-07T11:10:12;101601.56;;;9.48;98.06
19112;BME280;9688;51.906;8.376;2024-03-07T11:12:58;101613.06;;;9.42;98.84
19112;BME280;9688;51.906;8.376;2024-03-07T11:15:47;101600.91;;;9.35;99.62
19112;BME280;9688;51.906;8.376;2024-03-07T11:18:35;101615.81;;;9.36;98.90
19112;BME280;9688;51.906;8.376;2024-03-07T11:21:41;101595.75;;;9.29;98.94
19112;BME280;9688;51.906;8.376;2024-03-07T11:24:28;101599.19;;;9.32;98.43
19112;BME280;9688;51.906;8.376;2024-03-07T11:27:16;101602.81;;;9.27;99.21
19112;BME280;9688;51.906;8.376;2024-03-07T11:30:04;101590.53;;;9.23;98.62
19112;BME280;9688;51.906;8.376;2024-03-07T11:32:53;101595.81;;;9.26;98.71
19112;BME280;9688;51.906;8.376;2024-03-07T11:35:48;101584.91;;;9.44;98.09
19112;BME280;9688;51.906;8.376;2024-03-07T11:38:33;101591.44;;;9.71;97.91
19112;BME280;9688;51.906;8.376;2024-03-07T11:41:19;101585.91;;;9.83;96.32
19112;BME280;9688;51.906;8.376;2024-03-07T11:44:07;101590.19;;;9.91;96.25
19112;BME280;9688;51.906;8.376;2024-03-07T11:46:57;101582.00;;;10.03;95.31
19112;BME280;9688;51.906;8.376;2024-03-07T11:49:43;101571.34;;;10.08;94.82
19112;BME280;9688;51.906;8.376;2024-03-07T11:52:34;101574.53;;;10.23;94.37
19112;BME280;9688;51.906;8.376;2024-03-07T11:55:45;101578.56;;;10.41;94.09
19112;BME280;9688;51.906;8.376;2024-03-07T11:58:32;101573.88;;;10.54;93.18
19112;BME280;9688;51.906;8.376;2024-03-07T12:01:21;101564.47;;;10.41;92.73
19112;BME280;9688;51.906;8.376;2024-03-07T12:04:09;101562.25;;;10.21;93.22
19112;BME280;9688;51.906;8.376;2024-03-07T12:07:00;101558.41;;;9.95;93.00
19112;BME280;9688;51.906;8.376;2024-03-07T12:09:46;101559.34;;;9.91;92.83
19112;BME280;9688;51.906;8.376;2024-03-07T12:12:34;101548.69;;;9.96;92.46
19112;BME280;9688;51.906;8.376;2024-03-07T12:15:23;101553.06;;;9.97;91.78
19112;BME280;9688;51.906;8.376;2024-03-07T12:18:09;101532.72;;;10.02;91.08
19112;BME280;9688;51.906;8.376;2024-03-07T12:20:55;101541.31;;;10.12;91.33
19112;BME280;9688;51.906;8.376;2024-03-07T12:23:42;101536.75;;;10.20;90.74
19112;BME280;9688;51.906;8.376;2024-03-07T12:26:28;101519.63;;;10.36;89.73
19112;BME280;9688;51.906;8.376;2024-03-07T12:29:14;101513.16;;;10.49;89.93
19112;BME280;9688;51.906;8.376;2024-03-07T12:31:59;101520.63;;;10.69;89.34
19112;BME280;9688;51.906;8.376;2024-03-07T12:34:44;101515.81;;;10.85;88.73
19112;BME280;9688;51.906;8.376;2024-03-07T12:37:34;101498.03;;;10.92;88.51
19112;BME280;9688;51.906;8.376;2024-03-07T12:40:20;101497.69;;;11.04;87.32
19112;BME280;9688;51.906;8.376;2024-03-07T12:43:19;101499.13;;;11.18;87.83
19112;BME280;9688;51.906;8.376;2024-03-07T12:46:05;101504.41;;;11.18;86.42
19112;BME280;9688;51.906;8.376;2024-03-07T12:48:53;101501.47;;;10.96;87.05
19112;BME280;9688;51.906;8.376;2024-03-07T12:51:42;101496.53;;;10.80;87.65
19112;BME280;9688;51.906;8.376;2024-03-07T12:54:28;101492.34;;;10.73;87.93
19112;BME280;9688;51.906;8.376;2024-03-07T12:57:14;101486.22;;;10.71;87.02
19112;BME280;9688;51.906;8.376;2024-03-07T13:00:01;101490.47;;;10.77;86.39
19112;BME280;9688;51.906;8.376;2024-03-07T13:02:50;101477.00;;;10.86;85.67
19112;BME280;9688;51.906;8.376;2024-03-07T13:05:37;101487.13;;;11.04;86.07
19112;BME280;9688;51.906;8.376;2024-03-07T13:08:24;101479.94;;;11.09;84.63
19112;BME280;9688;51.906;8.376;2024-03-07T13:11:10;101472.09;;;11.06;84.79
19112;BME280;9688;51.906;8.376;2024-03-07T13:13:56;101471.94;;;11.11;84.18
19112;BME280;9688;51.906;8.376;2024-03-07T13:16:43;101457.81;;;11.12;84.90
19112;BME280;9688;51.906;8.376;2024-03-07T13:19:29;101473.63;;;11.13;83.67
19112;BME280;9688;51.906;8.376;2024-03-07T13:22:14;101481.28;;;11.24;82.95
19112;BME280;9688;51.906;8.376;2024-03-07T13:25:00;101474.38;;;11.19;83.63
19112;BME280;9688;51.906;8.376;2024-03-07T13:27:55;101463.34;;;11.03;82.76
19112;BME280;9688;51.906;8.376;2024-03-07T13:30:44;101463.34;;;11.03;82.84
19112;BME280;9688;51.906;8.376;2024-03-07T13:33:34;101450.06;;;11.04;82.32
19112;BME280;9688;51.906;8.376;2024-03-07T13:36:21;101450.25;;;10.98;81.48
19112;BME280;9688;51.906;8.376;2024-03-07T13:39:09;101446.78;;;10.94;81.65
19112;BME280;9688;51.906;8.376;2024-03-07T13:41:55;101445.16;;;10.90;80.86
19112;BME280;9688;51.906;8.376;2024-03-07T13:44:41;101437.88;;;10.99;81.37
19112;BME280;9688;51.906;8.376;2024-03-07T13:47:26;101433.28;;;11.05;80.39
19112;BME280;9688;51.906;8.376;2024-03-07T13:50:14;101432.31;;;11.09;79.70
19112;BME280;9688;51.906;8.376;2024-03-07T13:53:00;101433.13;;;11.11;79.28
19112;BME280;9688;51.906;8.376;2024-03-07T13:56:19;101429.78;;;11.05;79.82
19112;BME280;9688;51.906;8.376;2024-03-07T13:59:48;101421.34;;;10.90;79.53
19112;BME280;9688;51.906;8.376;2024-03-07T14:03:19;101421.53;;;10.84;80.45
19112;BME280;9688;51.906;8.376;2024-03-07T14:06:09;101417.88;;;10.88;79.33
19112;BME280;9688;51.906;8.376;2024-03-07T14:09:22;101414.72;;;11.07;80.12
19112;BME280;9688;51.906;8.376;2024-03-07T14:12:46;101408.97;;;11.24;78.33
19112;BME280;9688;51.906;8.376;2024-03-07T14:15:57;101414.25;;;11.24;78.09
19112;BME280;9688;51.906;8.376;2024-03-07T14:19:21;101405.78;;;11.11;77.44
19112;BME280;9688;51.906;8.376;2024-03-07T14:22:24;101406.88;;;11.04;77.65
19112;BME280;9688;51.906;8.376;2024-03-07T14:25:47;101400.09;;;10.93;77.25
19112;BME280;9688;51.906;8.376;2024-03-07T14:28:51;101397.75;;;10.83;78.37
19112;BME280;9688;51.906;8.376;2024-03-07T14:31:39;101397.81;;;10.80;77.75
19112;BME280;9688;51.906;8.376;2024-03-07T14:34:45;101395.19;;;10.80;77.97
19112;BME280;9688;51.906;8.376;2024-03-07T14:37:37;101395.06;;;10.84;78.57
19112;BME280;9688;51.906;8.376;2024-03-07T14:40:25;101395.53;;;11.00;78.08
19112;BME280;9688;51.906;8.376;2024-03-07T14:43:10;101383.19;;;10.99;77.78
19112;BME280;9688;51.906;8.376;2024-03-07T14:45:56;101393.59;;;11.05;76.91
19112;BME280;9688;51.906;8.376;2024-03-07T14:48:42;101385.50;;;11.11;77.73
19112;BME280;9688;51.906;8.376;2024-03-07T14:51:28;101384.69;;;11.08;77.35
19112;BME280;9688;51.906;8.376;2024-03-07T14:54:15;101375.22;;;11.01;77.25
19112;BME280;9688;51.906;8.376;2024-03-07T14:57:01;101378.00;;;10.94;77.74
19112;BME280;9688;51.906;8.376;2024-03-07T14:59:48;101379.72;;;10.97;77.55